sensor_id;sensor_type;location;lat;lon;timestamp;P1;durP1;ratioP1;P2;durP2;ratioP2
68938;SDS011;59064;45.294;11.816;2022-11-23T00:03:51;3.60;;;0.80;;
68938;SDS011;59064;45.294;11.816;2022-11-23T00:06:18;2.10;;;0.70;;
68938;SDS011;59064;45.294;11.816;2022-11-23T00:08:45;1.80;;;0.70;;
68938;SDS011;59064;45.294;11.816;2022-11-23T00:11:12;2.00;;;0.80;;
68938;SDS011;59064;45.294;11.816;2022-11-23T00:13:38;1.80;;;0.70;;
68938;SDS011;59064;45.294;11.816;2022-11-23T00:16:08;2.10;;;0.70;;
68938;SDS011;59064;45.294;11.816;2022-11-23T00:18:38;1.20;;;0.60;;
68938;SDS011;59064;45.294;11.816;2022-11-23T00:21:11;1.70;;;0.70;;
68938;SDS011;59064;45.294;11.816;2022-11-23T00:23:39;1.60;;;0.70;;
68938;SDS011;59064;45.294;11.816;2022-11-23T00:26:05;2.50;;;0.60;;
68938;SDS011;59064;45.294;11.816;2022-11-23T00:28:31;1.30;;;0.60;;
68938;SDS011;59064;45.294;11.816;2022-11-23T00:30:57;1.10;;;0.50;;
68938;SDS011;59064;45.294;11.816;2022-11-23T00:33:22;1.00;;;0.60;;
68938;SDS011;59064;45.294;11.816;2022-11-23T00:35:57;1.80;;;0.70;;
68938;SDS011;59064;45.294;11.816;2022-11-23T00:38:26;1.50;;;0.80;;
68938;SDS011;59064;45.294;11.816;2022-11-23T00:43:31;1.00;;;0.60;;
68938;SDS011;59064;45.294;11.816;2022-11-23T00:46:01;1.30;;;0.60;;
68938;SDS011;59064;45.294;11.816;2022-11-23T00:48:31;2.10;;;0.80;;
68938;SDS011;59064;45.294;11.816;2022-11-23T00:50:56;1.60;;;0.70;;
68938;SDS011;59064;45.294;11.816;2022-11-23T00:53:23;1.40;;;0.70;;
68938;SDS011;59064;45.294;11.816;2022-11-23T00:55:52;1.70;;;0.70;;
68938;SDS011;59064;45.294;11.816;2022-11-23T00:58:18;1.70;;;0.80;;
68938;SDS011;59064;45.294;11.816;2022-11-23T01:00:44;1.40;;;0.70;;
68938;SDS011;59064;45.294;11.816;2022-11-23T01:03:10;1.70;;;0.80;;
68938;SDS011;59064;45.294;11.816;2022-11-23T01:05:36;1.20;;;0.60;;
68938;SDS011;59064;45.294;11.816;2022-11-23T01:08:02;1.20;;;0.60;;
68938;SDS011;59064;45.294;11.816;2022-11-23T01:10:28;0.90;;;0.50;;
68938;SDS011;59064;45.294;11.816;2022-11-23T01:12:54;1.20;;;0.40;;
68938;SDS011;59064;45.294;11.816;2022-11-23T01:15:20;1.50;;;0.50;;
68938;SDS011;59064;45.294;11.816;2022-11-23T01:17:45;1.10;;;0.50;;
68938;SDS011;59064;45.294;11.816;2022-11-23T01:20:11;1.20;;;0.60;;
68938;SDS011;59064;45.294;11.816;2022-11-23T01:22:36;1.30;;;0.60;;
68938;SDS011;59064;45.294;11.816;2022-11-23T01:25:02;1.00;;;0.50;;
68938;SDS011;59064;45.294;11.816;2022-11-23T01:27:27;1.30;;;0.60;;
68938;SDS011;59064;45.294;11.816;2022-11-23T01:29:53;1.20;;;0.60;;
68938;SDS011;59064;45.294;11.816;2022-11-23T01:32:18;1.10;;;0.60;;
68938;SDS011;59064;45.294;11.816;2022-11-23T01:34:44;1.30;;;0.60;;
68938;SDS011;59064;45.294;11.816;2022-11-23T01:37:10;2.60;;;1.00;;
68938;SDS011;59064;45.294;11.816;2022-11-23T01:39:35;2.20;;;0.80;;
68938;SDS011;59064;45.294;11.816;2022-11-23T01:42:01;2.20;;;0.90;;
68938;SDS011;59064;45.294;11.816;2022-11-23T01:44:35;2.20;;;1.00;;
68938;SDS011;59064;45.294;11.816;2022-11-23T01:47:04;1.70;;;0.80;;
68938;SDS011;59064;45.294;11.816;2022-11-23T01:49:35;2.00;;;0.90;;
68938;SDS011;59064;45.294;11.816;2022-11-23T01:52:11;2.30;;;1.10;;
68938;SDS011;59064;45.294;11.816;2022-11-23T01:54:47;2.70;;;1.00;;
68938;SDS011;59064;45.294;11.816;2022-11-23T01:57:20;3.20;;;1.20;;
68938;SDS011;59064;45.294;11.816;2022-11-23T01:59:51;2.20;;;1.00;;
68938;SDS011;59064;45.294;11.816;2022-11-23T02:02:18;7.90;;;1.10;;
68938;SDS011;59064;45.294;11.816;2022-11-23T02:04:45;3.40;;;1.10;;
68938;SDS011;59064;45.294;11.816;2022-11-23T02:07:12;3.00;;;1.20;;
68938;SDS011;59064;45.294;11.816;2022-11-23T02:09:40;2.30;;;1.00;;
68938;SDS011;59064;45.294;11.816;2022-11-23T02:12:10;2.90;;;1.20;;
68938;SDS011;59064;45.294;11.816;2022-11-23T02:14:39;2.60;;;1.20;;
68938;SDS011;59064;45.294;11.816;2022-11-23T02:17:06;2.60;;;1.20;;
68938;SDS011;59064;45.294;11.816;2022-11-23T02:22:05;4.30;;;2.00;;
68938;SDS011;59064;45.294;11.816;2022-11-23T02:24:38;5.40;;;2.20;;
68938;SDS011;59064;45.294;11.816;2022-11-23T02:27:10;3.30;;;1.40;;
68938;SDS011;59064;45.294;11.816;2022-11-23T02:29:35;4.40;;;1.60;;
68938;SDS011;59064;45.294;11.816;2022-11-23T02:32:01;2.40;;;1.20;;
68938;SDS011;59064;45.294;11.816;2022-11-23T02:34:26;4.20;;;2.20;;
68938;SDS011;59064;45.294;11.816;2022-11-23T02:36:52;4.20;;;1.70;;
68938;SDS011;59064;45.294;11.816;2022-11-23T02:41:58;2.80;;;0.90;;
68938;SDS011;59064;45.294;11.816;2022-11-23T02:46:55;1.80;;;0.70;;
68938;SDS011;59064;45.294;11.816;2022-11-23T02:49:22;1.00;;;0.50;;
68938;SDS011;59064;45.294;11.816;2022-11-23T02:51:48;1.80;;;0.70;;
68938;SDS011;59064;45.294;11.816;2022-11-23T02:54:13;1.40;;;0.60;;
68938;SDS011;59064;45.294;11.816;2022-11-23T02:56:39;1.90;;;0.80;;
68938;SDS011;59064;45.294;11.816;2022-11-23T02:59:04;1.50;;;0.70;;
68938;SDS011;59064;45.294;11.816;2022-11-23T03:01:30;1.50;;;0.60;;
68938;SDS011;59064;45.294;11.816;2022-11-23T03:03:55;1.70;;;0.80;;
68938;SDS011;59064;45.294;11.816;2022-11-23T03:06:20;2.10;;;0.80;;
68938;SDS011;59064;45.294;11.816;2022-11-23T03:08:46;1.60;;;0.90;;
68938;SDS011;59064;45.294;11.816;2022-11-23T03:11:11;2.50;;;1.00;;
68938;SDS011;59064;45.294;11.816;2022-11-23T03:13:37;3.10;;;1.20;;
68938;SDS011;59064;45.294;11.816;2022-11-23T03:16:02;2.30;;;1.10;;
68938;SDS011;59064;45.294;11.816;2022-11-23T03:18:28;4.50;;;1.40;;
68938;SDS011;59064;45.294;11.816;2022-11-23T03:20:53;2.30;;;1.20;;
68938;SDS011;59064;45.294;11.816;2022-11-23T03:23:19;3.60;;;1.80;;
68938;SDS011;59064;45.294;11.816;2022-11-23T03:25:44;3.50;;;1.70;;
68938;SDS011;59064;45.294;11.816;2022-11-23T03:28:10;5.10;;;2.50;;
68938;SDS011;59064;45.294;11.816;2022-11-23T03:30:35;5.40;;;2.70;;
68938;SDS011;59064;45.294;11.816;2022-11-23T03:33:01;5.90;;;3.30;;
68938;SDS011;59064;45.294;11.816;2022-11-23T03:35:26;7.50;;;3.80;;
68938;SDS011;59064;45.294;11.816;2022-11-23T03:37:51;7.70;;;4.70;;
68938;SDS011;59064;45.294;11.816;2022-11-23T03:40:17;7.60;;;4.80;;
68938;SDS011;59064;45.294;11.816;2022-11-23T03:42:42;7.40;;;4.30;;
68938;SDS011;59064;45.294;11.816;2022-11-23T03:45:08;7.00;;;3.60;;
68938;SDS011;59064;45.294;11.816;2022-11-23T03:47:34;8.20;;;5.00;;
68938;SDS011;59064;45.294;11.816;2022-11-23T03:50:00;8.40;;;5.10;;
68938;SDS011;59064;45.294;11.816;2022-11-23T03:52:26;9.90;;;5.90;;
68938;SDS011;59064;45.294;11.816;2022-11-23T03:54:51;9.60;;;5.10;;
68938;SDS011;59064;45.294;11.816;2022-11-23T03:57:17;9.10;;;5.50;;
68938;SDS011;59064;45.294;11.816;2022-11-23T03:59:42;9.60;;;5.30;;
68938;SDS011;59064;45.294;11.816;2022-11-23T04:02:08;11.00;;;4.40;;
68938;SDS011;59064;45.294;11.816;2022-11-23T04:04:34;8.40;;;4.90;;
68938;SDS011;59064;45.294;11.816;2022-11-23T04:07:00;5.50;;;3.70;;
68938;SDS011;59064;45.294;11.816;2022-11-23T04:09:25;10.40;;;6.20;;
68938;SDS011;59064;45.294;11.816;2022-11-23T04:11:51;7.60;;;5.30;;
68938;SDS011;59064;45.294;11.816;2022-11-23T04:14:17;7.70;;;5.00;;
68938;SDS011;59064;45.294;11.816;2022-11-23T04:16:42;8.90;;;5.50;;
68938;SDS011;59064;45.294;11.816;2022-11-23T04:19:07;12.70;;;6.90;;
68938;SDS011;59064;45.294;11.816;2022-11-23T04:21:33;10.40;;;6.50;;
68938;SDS011;59064;45.294;11.816;2022-11-23T04:23:59;11.20;;;7.60;;
68938;SDS011;59064;45.294;11.816;2022-11-23T04:26:24;11.90;;;7.80;;
68938;SDS011;59064;45.294;11.816;2022-11-23T04:28:49;15.30;;;8.10;;
68938;SDS011;59064;45.294;11.816;2022-11-23T04:31:15;14.80;;;9.20;;
68938;SDS011;59064;45.294;11.816;2022-11-23T04:33:40;13.80;;;8.90;;
68938;SDS011;59064;45.294;11.816;2022-11-23T04:36:06;14.00;;;8.90;;
68938;SDS011;59064;45.294;11.816;2022-11-23T04:38:33;16.60;;;9.40;;
68938;SDS011;59064;45.294;11.816;2022-11-23T04:40:58;13.50;;;9.10;;
68938;SDS011;59064;45.294;11.816;2022-11-23T04:43:24;15.60;;;9.20;;
68938;SDS011;59064;45.294;11.816;2022-11-23T04:45:50;14.10;;;8.40;;
68938;SDS011;59064;45.294;11.816;2022-11-23T04:48:15;15.50;;;9.60;;
68938;SDS011;59064;45.294;11.816;2022-11-23T04:50:40;16.80;;;9.20;;
68938;SDS011;59064;45.294;11.816;2022-11-23T04:53:06;15.40;;;8.60;;
68938;SDS011;59064;45.294;11.816;2022-11-23T04:55:32;14.50;;;8.60;;
68938;SDS011;59064;45.294;11.816;2022-11-23T04:57:58;14.10;;;9.20;;
68938;SDS011;59064;45.294;11.816;2022-11-23T05:00:24;15.00;;;9.40;;
68938;SDS011;59064;45.294;11.816;2022-11-23T05:02:49;14.40;;;9.00;;
68938;SDS011;59064;45.294;11.816;2022-11-23T05:05:15;14.10;;;9.40;;
68938;SDS011;59064;45.294;11.816;2022-11-23T05:07:40;15.70;;;10.10;;
68938;SDS011;59064;45.294;11.816;2022-11-23T05:10:06;13.80;;;9.20;;
68938;SDS011;59064;45.294;11.816;2022-11-23T05:12:32;12.70;;;9.00;;
68938;SDS011;59064;45.294;11.816;2022-11-23T05:14:58;13.80;;;8.90;;
68938;SDS011;59064;45.294;11.816;2022-11-23T05:17:23;13.80;;;9.20;;
68938;SDS011;59064;45.294;11.816;2022-11-23T05:19:49;14.60;;;9.10;;
68938;SDS011;59064;45.294;11.816;2022-11-23T05:22:14;15.40;;;9.40;;
68938;SDS011;59064;45.294;11.816;2022-11-23T05:24:40;13.50;;;9.50;;
68938;SDS011;59064;45.294;11.816;2022-11-23T05:27:05;13.20;;;8.40;;
68938;SDS011;59064;45.294;11.816;2022-11-23T05:29:31;14.10;;;8.40;;
68938;SDS011;59064;45.294;11.816;2022-11-23T05:31:56;13.10;;;8.60;;
68938;SDS011;59064;45.294;11.816;2022-11-23T05:34:22;13.20;;;7.70;;
68938;SDS011;59064;45.294;11.816;2022-11-23T05:36:47;12.60;;;7.70;;
68938;SDS011;59064;45.294;11.816;2022-11-23T05:39:12;12.00;;;7.50;;
68938;SDS011;59064;45.294;11.816;2022-11-23T05:41:38;10.40;;;6.60;;
68938;SDS011;59064;45.294;11.816;2022-11-23T05:44:03;11.50;;;7.20;;
68938;SDS011;59064;45.294;11.816;2022-11-23T05:46:29;11.50;;;7.10;;
68938;SDS011;59064;45.294;11.816;2022-11-23T05:48:54;11.20;;;6.40;;
68938;SDS011;59064;45.294;11.816;2022-11-23T05:51:20;9.90;;;6.70;;
68938;SDS011;59064;45.294;11.816;2022-11-23T05:53:45;10.40;;;6.10;;
68938;SDS011;59064;45.294;11.816;2022-11-23T05:56:12;9.50;;;6.10;;
68938;SDS011;59064;45.294;11.816;2022-11-23T05:58:38;9.40;;;6.10;;
68938;SDS011;59064;45.294;11.816;2022-11-23T06:01:04;9.00;;;5.70;;
68938;SDS011;59064;45.294;11.816;2022-11-23T06:03:29;6.30;;;3.70;;
68938;SDS011;59064;45.294;11.816;2022-11-23T06:05:55;8.80;;;5.60;;
68938;SDS011;59064;45.294;11.816;2022-11-23T06:08:20;8.10;;;5.10;;
68938;SDS011;59064;45.294;11.816;2022-11-23T06:10:45;9.60;;;5.50;;
68938;SDS011;59064;45.294;11.816;2022-11-23T06:13:11;10.70;;;5.50;;
68938;SDS011;59064;45.294;11.816;2022-11-23T06:15:38;8.40;;;4.60;;
68938;SDS011;59064;45.294;11.816;2022-11-23T06:18:03;9.10;;;4.90;;
68938;SDS011;59064;45.294;11.816;2022-11-23T06:20:29;7.80;;;4.10;;
68938;SDS011;59064;45.294;11.816;2022-11-23T06:22:55;8.90;;;5.10;;
68938;SDS011;59064;45.294;11.816;2022-11-23T06:25:21;7.20;;;4.50;;
68938;SDS011;59064;45.294;11.816;2022-11-23T06:27:54;8.30;;;4.80;;
68938;SDS011;59064;45.294;11.816;2022-11-23T06:30:21;7.90;;;4.60;;
68938;SDS011;59064;45.294;11.816;2022-11-23T06:32:46;7.40;;;4.40;;
68938;SDS011;59064;45.294;11.816;2022-11-23T06:35:12;7.00;;;4.10;;
68938;SDS011;59064;45.294;11.816;2022-11-23T06:37:38;7.00;;;4.20;;
68938;SDS011;59064;45.294;11.816;2022-11-23T06:40:03;7.50;;;4.20;;
68938;SDS011;59064;45.294;11.816;2022-11-23T06:42:29;11.10;;;5.90;;
68938;SDS011;59064;45.294;11.816;2022-11-23T06:44:55;25.90;;;16.10;;
68938;SDS011;59064;45.294;11.816;2022-11-23T06:47:21;12.80;;;8.00;;
68938;SDS011;59064;45.294;11.816;2022-11-23T06:49:46;10.70;;;7.10;;
68938;SDS011;59064;45.294;11.816;2022-11-23T06:52:13;12.60;;;7.30;;
68938;SDS011;59064;45.294;11.816;2022-11-23T06:54:38;9.20;;;5.80;;
68938;SDS011;59064;45.294;11.816;2022-11-23T06:57:07;8.30;;;5.10;;
68938;SDS011;59064;45.294;11.816;2022-11-23T06:59:33;8.40;;;5.00;;
68938;SDS011;59064;45.294;11.816;2022-11-23T07:01:58;8.90;;;4.90;;
68938;SDS011;59064;45.294;11.816;2022-11-23T07:04:24;9.40;;;5.70;;
68938;SDS011;59064;45.294;11.816;2022-11-23T07:06:50;10.30;;;6.40;;
68938;SDS011;59064;45.294;11.816;2022-11-23T07:09:17;9.50;;;6.60;;
68938;SDS011;59064;45.294;11.816;2022-11-23T07:11:42;10.50;;;6.40;;
68938;SDS011;59064;45.294;11.816;2022-11-23T07:14:08;10.80;;;6.60;;
68938;SDS011;59064;45.294;11.816;2022-11-23T07:16:34;11.10;;;8.10;;
68938;SDS011;59064;45.294;11.816;2022-11-23T07:18:59;10.10;;;6.40;;
68938;SDS011;59064;45.294;11.816;2022-11-23T07:21:25;10.50;;;7.10;;
68938;SDS011;59064;45.294;11.816;2022-11-23T07:23:50;10.00;;;6.60;;
68938;SDS011;59064;45.294;11.816;2022-11-23T07:26:16;9.50;;;6.30;;
68938;SDS011;59064;45.294;11.816;2022-11-23T07:28:42;10.40;;;6.50;;
68938;SDS011;59064;45.294;11.816;2022-11-23T07:31:08;12.40;;;7.00;;
68938;SDS011;59064;45.294;11.816;2022-11-23T07:33:33;12.10;;;7.20;;
68938;SDS011;59064;45.294;11.816;2022-11-23T07:36:00;10.20;;;5.20;;
68938;SDS011;59064;45.294;11.816;2022-11-23T07:38:27;10.40;;;6.30;;
68938;SDS011;59064;45.294;11.816;2022-11-23T07:40:53;7.70;;;4.80;;
68938;SDS011;59064;45.294;11.816;2022-11-23T07:43:18;10.90;;;5.10;;
68938;SDS011;59064;45.294;11.816;2022-11-23T07:45:44;6.50;;;4.20;;
68938;SDS011;59064;45.294;11.816;2022-11-23T07:48:09;6.60;;;4.50;;
68938;SDS011;59064;45.294;11.816;2022-11-23T07:50:36;6.60;;;4.20;;
68938;SDS011;59064;45.294;11.816;2022-11-23T07:53:03;8.20;;;3.90;;
68938;SDS011;59064;45.294;11.816;2022-11-23T07:55:29;5.80;;;3.80;;
68938;SDS011;59064;45.294;11.816;2022-11-23T07:57:55;6.60;;;4.40;;
68938;SDS011;59064;45.294;11.816;2022-11-23T08:00:22;6.40;;;4.10;;
68938;SDS011;59064;45.294;11.816;2022-11-23T08:02:49;5.90;;;3.10;;
68938;SDS011;59064;45.294;11.816;2022-11-23T08:05:15;5.10;;;2.80;;
68938;SDS011;59064;45.294;11.816;2022-11-23T08:07:42;6.90;;;3.10;;
68938;SDS011;59064;45.294;11.816;2022-11-23T08:10:09;5.60;;;3.60;;
68938;SDS011;59064;45.294;11.816;2022-11-23T08:12:35;8.70;;;4.40;;
68938;SDS011;59064;45.294;11.816;2022-11-23T08:15:01;7.40;;;4.50;;
68938;SDS011;59064;45.294;11.816;2022-11-23T08:17:27;8.60;;;6.60;;
68938;SDS011;59064;45.294;11.816;2022-11-23T08:19:52;8.30;;;5.50;;
68938;SDS011;59064;45.294;11.816;2022-11-23T08:22:17;5.90;;;4.20;;
68938;SDS011;59064;45.294;11.816;2022-11-23T08:24:43;4.90;;;2.80;;
68938;SDS011;59064;45.294;11.816;2022-11-23T08:27:09;5.90;;;4.40;;
68938;SDS011;59064;45.294;11.816;2022-11-23T08:29:34;6.40;;;4.10;;
68938;SDS011;59064;45.294;11.816;2022-11-23T08:32:00;5.30;;;3.80;;
68938;SDS011;59064;45.294;11.816;2022-11-23T08:34:26;5.30;;;3.30;;
68938;SDS011;59064;45.294;11.816;2022-11-23T08:36:52;5.80;;;3.60;;
68938;SDS011;59064;45.294;11.816;2022-11-23T08:39:17;5.20;;;3.20;;
68938;SDS011;59064;45.294;11.816;2022-11-23T08:41:43;5.30;;;3.30;;
68938;SDS011;59064;45.294;11.816;2022-11-23T08:44:09;4.80;;;2.90;;
68938;SDS011;59064;45.294;11.816;2022-11-23T08:46:36;5.60;;;2.90;;
68938;SDS011;59064;45.294;11.816;2022-11-23T08:49:03;4.80;;;3.00;;
68938;SDS011;59064;45.294;11.816;2022-11-23T08:51:29;5.30;;;2.90;;
68938;SDS011;59064;45.294;11.816;2022-11-23T08:53:54;5.30;;;2.80;;
68938;SDS011;59064;45.294;11.816;2022-11-23T08:56:20;6.00;;;2.70;;
68938;SDS011;59064;45.294;11.816;2022-11-23T08:58:45;4.90;;;3.00;;
68938;SDS011;59064;45.294;11.816;2022-11-23T09:01:11;5.70;;;2.90;;
68938;SDS011;59064;45.294;11.816;2022-11-23T09:03:38;5.20;;;3.30;;
68938;SDS011;59064;45.294;11.816;2022-11-23T09:06:04;5.00;;;3.10;;
68938;SDS011;59064;45.294;11.816;2022-11-23T09:08:31;4.80;;;3.00;;
68938;SDS011;59064;45.294;11.816;2022-11-23T09:11:00;4.00;;;2.40;;
68938;SDS011;59064;45.294;11.816;2022-11-23T09:13:26;4.30;;;2.40;;
68938;SDS011;59064;45.294;11.816;2022-11-23T09:15:59;5.00;;;3.00;;
68938;SDS011;59064;45.294;11.816;2022-11-23T09:18:27;4.70;;;2.50;;
68938;SDS011;59064;45.294;11.816;2022-11-23T09:20:54;4.50;;;2.20;;
68938;SDS011;59064;45.294;11.816;2022-11-23T09:23:20;5.00;;;2.50;;
68938;SDS011;59064;45.294;11.816;2022-11-23T09:25:46;4.90;;;2.80;;
68938;SDS011;59064;45.294;11.816;2022-11-23T09:28:14;5.10;;;2.60;;
68938;SDS011;59064;45.294;11.816;2022-11-23T09:30:41;3.80;;;1.90;;
68938;SDS011;59064;45.294;11.816;2022-11-23T09:33:07;6.70;;;2.40;;
68938;SDS011;59064;45.294;11.816;2022-11-23T09:35:33;5.50;;;2.80;;
68938;SDS011;59064;45.294;11.816;2022-11-23T09:37:59;3.00;;;1.60;;
68938;SDS011;59064;45.294;11.816;2022-11-23T09:40:32;5.30;;;2.60;;
68938;SDS011;59064;45.294;11.816;2022-11-23T09:43:06;4.00;;;2.00;;
68938;SDS011;59064;45.294;11.816;2022-11-23T09:45:39;4.00;;;2.00;;
68938;SDS011;59064;45.294;11.816;2022-11-23T09:51:19;3.80;;;1.80;;
68938;SDS011;59064;45.294;11.816;2022-11-23T09:53:50;4.40;;;2.40;;
68938;SDS011;59064;45.294;11.816;2022-11-23T09:56:24;5.50;;;3.30;;
68938;SDS011;59064;45.294;11.816;2022-11-23T09:58:54;5.70;;;3.50;;
68938;SDS011;59064;45.294;11.816;2022-11-23T10:01:21;5.00;;;2.30;;
68938;SDS011;59064;45.294;11.816;2022-11-23T10:03:47;5.30;;;2.70;;
68938;SDS011;59064;45.294;11.816;2022-11-23T10:06:26;7.10;;;3.30;;
68938;SDS011;59064;45.294;11.816;2022-11-23T10:08:58;6.10;;;3.80;;
68938;SDS011;59064;45.294;11.816;2022-11-23T10:11:30;5.00;;;2.60;;
68938;SDS011;59064;45.294;11.816;2022-11-23T10:17:01;4.80;;;2.20;;
68938;SDS011;59064;45.294;11.816;2022-11-23T10:22:56;5.30;;;3.00;;
68938;SDS011;59064;45.294;11.816;2022-11-23T10:25:23;5.00;;;3.10;;
68938;SDS011;59064;45.294;11.816;2022-11-23T10:27:51;5.50;;;3.60;;
68938;SDS011;59064;45.294;11.816;2022-11-23T10:30:20;4.70;;;3.10;;
68938;SDS011;59064;45.294;11.816;2022-11-23T10:33:04;7.40;;;3.70;;
68938;SDS011;59064;45.294;11.816;2022-11-23T10:35:52;5.40;;;2.90;;
68938;SDS011;59064;45.294;11.816;2022-11-23T10:38:23;5.00;;;2.80;;
68938;SDS011;59064;45.294;11.816;2022-11-23T10:43:26;5.70;;;2.70;;
68938;SDS011;59064;45.294;11.816;2022-11-23T10:46:21;5.70;;;3.70;;
68938;SDS011;59064;45.294;11.816;2022-11-23T10:54:20;5.10;;;3.00;;
68938;SDS011;59064;45.294;11.816;2022-11-23T10:56:49;6.70;;;4.40;;
68938;SDS011;59064;45.294;11.816;2022-11-23T10:59:37;5.20;;;3.00;;
68938;SDS011;59064;45.294;11.816;2022-11-23T11:02:13;6.80;;;4.30;;
68938;SDS011;59064;45.294;11.816;2022-11-23T11:04:39;6.10;;;3.70;;
68938;SDS011;59064;45.294;11.816;2022-11-23T11:07:09;4.60;;;2.30;;
68938;SDS011;59064;45.294;11.816;2022-11-23T11:09:47;4.40;;;2.10;;
68938;SDS011;59064;45.294;11.816;2022-11-23T11:12:16;3.50;;;2.00;;
68938;SDS011;59064;45.294;11.816;2022-11-23T11:14:59;4.80;;;1.90;;
68938;SDS011;59064;45.294;11.816;2022-11-23T11:17:32;3.90;;;2.20;;
68938;SDS011;59064;45.294;11.816;2022-11-23T11:19:59;3.70;;;2.60;;
68938;SDS011;59064;45.294;11.816;2022-11-23T11:24:59;3.90;;;2.20;;
68938;SDS011;59064;45.294;11.816;2022-11-23T11:27:26;4.40;;;2.30;;
68938;SDS011;59064;45.294;11.816;2022-11-23T11:29:54;4.70;;;2.10;;
68938;SDS011;59064;45.294;11.816;2022-11-23T11:35:13;5.30;;;3.30;;
68938;SDS011;59064;45.294;11.816;2022-11-23T11:37:41;4.90;;;2.40;;
68938;SDS011;59064;45.294;11.816;2022-11-23T11:40:25;4.70;;;2.70;;
68938;SDS011;59064;45.294;11.816;2022-11-23T11:43:10;3.80;;;2.30;;
68938;SDS011;59064;45.294;11.816;2022-11-23T11:45:54;4.40;;;2.40;;
68938;SDS011;59064;45.294;11.816;2022-11-23T11:50:50;5.40;;;2.80;;
68938;SDS011;59064;45.294;11.816;2022-11-23T11:53:19;5.40;;;2.90;;
68938;SDS011;59064;45.294;11.816;2022-11-23T11:56:00;6.10;;;3.00;;
68938;SDS011;59064;45.294;11.816;2022-11-23T11:58:31;6.70;;;4.60;;
68938;SDS011;59064;45.294;11.816;2022-11-23T12:01:02;5.60;;;3.60;;
68938;SDS011;59064;45.294;11.816;2022-11-23T12:03:39;6.50;;;3.90;;
68938;SDS011;59064;45.294;11.816;2022-11-23T12:06:10;5.10;;;3.30;;
68938;SDS011;59064;45.294;11.816;2022-11-23T12:08:54;4.50;;;2.60;;
68938;SDS011;59064;45.294;11.816;2022-11-23T12:11:41;4.20;;;2.30;;
68938;SDS011;59064;45.294;11.816;2022-11-23T12:14:09;4.10;;;2.50;;
68938;SDS011;59064;45.294;11.816;2022-11-23T12:19:43;5.00;;;2.80;;
68938;SDS011;59064;45.294;11.816;2022-11-23T12:25:35;4.80;;;2.70;;
68938;SDS011;59064;45.294;11.816;2022-11-23T12:30:46;6.10;;;4.30;;
68938;SDS011;59064;45.294;11.816;2022-11-23T12:45:05;5.00;;;3.10;;
68938;SDS011;59064;45.294;11.816;2022-11-23T12:47:40;5.40;;;3.00;;
68938;SDS011;59064;45.294;11.816;2022-11-23T12:50:29;5.00;;;3.30;;
68938;SDS011;59064;45.294;11.816;2022-11-23T12:55:59;5.00;;;2.80;;
68938;SDS011;59064;45.294;11.816;2022-11-23T12:58:35;5.20;;;3.70;;
68938;SDS011;59064;45.294;11.816;2022-11-23T13:01:16;5.00;;;3.40;;
68938;SDS011;59064;45.294;11.816;2022-11-23T13:17:46;4.20;;;2.10;;
68938;SDS011;59064;45.294;11.816;2022-11-23T13:20:40;4.30;;;2.30;;
68938;SDS011;59064;45.294;11.816;2022-11-23T13:23:20;4.70;;;2.60;;
68938;SDS011;59064;45.294;11.816;2022-11-23T13:28:45;4.50;;;2.20;;
68938;SDS011;59064;45.294;11.816;2022-11-23T13:33:41;3.50;;;2.10;;
68938;SDS011;59064;45.294;11.816;2022-11-23T13:36:09;5.20;;;2.10;;
68938;SDS011;59064;45.294;11.816;2022-11-23T13:38:55;5.40;;;2.50;;
68938;SDS011;59064;45.294;11.816;2022-11-23T13:44:11;3.80;;;2.00;;
68938;SDS011;59064;45.294;11.816;2022-11-23T13:46:44;5.40;;;3.90;;
68938;SDS011;59064;45.294;11.816;2022-11-23T13:52:03;5.00;;;2.60;;
68938;SDS011;59064;45.294;11.816;2022-11-23T13:54:31;4.40;;;3.00;;
68938;SDS011;59064;45.294;11.816;2022-11-23T13:57:01;4.90;;;3.20;;
68938;SDS011;59064;45.294;11.816;2022-11-23T13:59:35;5.00;;;3.30;;
68938;SDS011;59064;45.294;11.816;2022-11-23T14:02:14;5.30;;;3.10;;
68938;SDS011;59064;45.294;11.816;2022-11-23T14:05:27;5.50;;;3.30;;
68938;SDS011;59064;45.294;11.816;2022-11-23T14:08:08;5.10;;;3.10;;
68938;SDS011;59064;45.294;11.816;2022-11-23T14:10:36;6.10;;;3.00;;
68938;SDS011;59064;45.294;11.816;2022-11-23T14:13:11;6.20;;;3.10;;
68938;SDS011;59064;45.294;11.816;2022-11-23T14:15:46;5.00;;;3.50;;
68938;SDS011;59064;45.294;11.816;2022-11-23T14:21:13;4.70;;;3.20;;
68938;SDS011;59064;45.294;11.816;2022-11-23T14:42:52;5.10;;;3.40;;
68938;SDS011;59064;45.294;11.816;2022-11-23T14:45:20;4.80;;;3.40;;
68938;SDS011;59064;45.294;11.816;2022-11-23T14:47:47;5.70;;;3.70;;
68938;SDS011;59064;45.294;11.816;2022-11-23T14:50:26;5.00;;;3.50;;
68938;SDS011;59064;45.294;11.816;2022-11-23T14:52:53;6.20;;;4.70;;
68938;SDS011;59064;45.294;11.816;2022-11-23T14:55:22;8.30;;;6.00;;
68938;SDS011;59064;45.294;11.816;2022-11-23T14:57:51;5.60;;;4.60;;
68938;SDS011;59064;45.294;11.816;2022-11-23T15:00:36;4.90;;;3.70;;
68938;SDS011;59064;45.294;11.816;2022-11-23T15:03:08;7.20;;;3.70;;
68938;SDS011;59064;45.294;11.816;2022-11-23T15:05:39;5.00;;;3.30;;
68938;SDS011;59064;45.294;11.816;2022-11-23T15:08:16;6.00;;;3.30;;
68938;SDS011;59064;45.294;11.816;2022-11-23T15:10:51;6.20;;;3.60;;
68938;SDS011;59064;45.294;11.816;2022-11-23T15:13:28;5.80;;;4.10;;
68938;SDS011;59064;45.294;11.816;2022-11-23T15:15:56;5.40;;;3.70;;
68938;SDS011;59064;45.294;11.816;2022-11-23T15:18:35;5.00;;;3.40;;
68938;SDS011;59064;45.294;11.816;2022-11-23T15:21:13;5.90;;;3.90;;
68938;SDS011;59064;45.294;11.816;2022-11-23T15:23:46;6.80;;;3.80;;
68938;SDS011;59064;45.294;11.816;2022-11-23T15:29:01;15.40;;;10.60;;
68938;SDS011;59064;45.294;11.816;2022-11-23T15:31:28;8.30;;;5.50;;
68938;SDS011;59064;45.294;11.816;2022-11-23T15:34:02;7.00;;;4.70;;
68938;SDS011;59064;45.294;11.816;2022-11-23T15:36:30;8.50;;;4.40;;
68938;SDS011;59064;45.294;11.816;2022-11-23T15:38:59;9.60;;;5.60;;
68938;SDS011;59064;45.294;11.816;2022-11-23T15:41:26;9.80;;;6.00;;
68938;SDS011;59064;45.294;11.816;2022-11-23T15:43:54;10.70;;;5.90;;
68938;SDS011;59064;45.294;11.816;2022-11-23T15:46:22;10.90;;;5.60;;
68938;SDS011;59064;45.294;11.816;2022-11-23T15:48:50;9.50;;;5.80;;
68938;SDS011;59064;45.294;11.816;2022-11-23T15:51:28;10.80;;;6.10;;
68938;SDS011;59064;45.294;11.816;2022-11-23T15:53:59;10.00;;;6.50;;
68938;SDS011;59064;45.294;11.816;2022-11-23T15:56:32;10.30;;;6.60;;
68938;SDS011;59064;45.294;11.816;2022-11-23T15:59:01;12.00;;;6.90;;
68938;SDS011;59064;45.294;11.816;2022-11-23T16:01:28;11.20;;;7.40;;
68938;SDS011;59064;45.294;11.816;2022-11-23T16:03:58;13.10;;;7.80;;
68938;SDS011;59064;45.294;11.816;2022-11-23T16:06:36;11.50;;;7.40;;
68938;SDS011;59064;45.294;11.816;2022-11-23T16:11:57;12.70;;;7.30;;
68938;SDS011;59064;45.294;11.816;2022-11-23T16:14:26;13.30;;;8.80;;
68938;SDS011;59064;45.294;11.816;2022-11-23T16:19:55;12.40;;;9.00;;
68938;SDS011;59064;45.294;11.816;2022-11-23T16:24:48;16.90;;;11.60;;
68938;SDS011;59064;45.294;11.816;2022-11-23T16:27:20;15.80;;;11.60;;
68938;SDS011;59064;45.294;11.816;2022-11-23T16:29:48;17.20;;;12.80;;
68938;SDS011;59064;45.294;11.816;2022-11-23T16:32:22;17.50;;;12.80;;
68938;SDS011;59064;45.294;11.816;2022-11-23T16:34:52;16.50;;;12.50;;
68938;SDS011;59064;45.294;11.816;2022-11-23T16:37:19;25.70;;;17.40;;
68938;SDS011;59064;45.294;11.816;2022-11-23T16:39:45;16.40;;;9.90;;